Time;durP1;ratioP1;P1;durP2;ratioP2;P2;SDS_P1;SDS_P2;PMS_P1;PMS_P2;Temp;Humidity;BMP_temperature;BMP_pressure;BME280_temperature;BME280_humidity;BME280_pressure;Samples;Min_cycle;Max_cycle;Signal;HPM_P1;HPM_P2
2021/09/16 00:00:49;;;;;;;4.40;2.30;;;;;;;;;;5052708;28;20060;-64
2021/09/16 00:03:15;;;;;;;6.07;2.60;;;;;;;;;;5052691;28;20059;-64
2021/09/16 00:05:42;;;;;;;4.30;2.60;;;;;;;;;;5052584;28;20610;-64
2021/09/16 00:08:09;;;;;;;4.57;2.33;;;;;;;;;;5052575;28;20130;-64
2021/09/16 00:10:35;;;;;;;2.20;1.80;;;;;;;;;;5052996;28;20048;-64
2021/09/16 00:13:02;;;;;;;2.40;1.85;;;;;;;;;;5052292;28;20048;-64
2021/09/16 00:15:28;;;;;;;2.92;1.77;;;;;;;;;;5052569;28;20072;-64
2021/09/16 00:17:55;;;;;;;2.08;1.38;;;;;;;;;;5052392;28;20048;-64
2021/09/16 00:20:22;;;;;;;2.20;1.73;;;;;;;;;;5052706;28;20111;-63
2021/09/16 00:22:48;;;;;;;2.50;1.58;;;;;;;;;;5052284;28;20055;-64
2021/09/16 00:25:15;;;;;;;1.85;1.40;;;;;;;;;;5052463;28;20491;-64
2021/09/16 00:27:41;;;;;;;1.98;1.50;;;;;;;;;;5052314;28;20122;-64
2021/09/16 00:30:09;;;;;;;1.75;1.60;;;;;;;;;;5051393;28;20052;-63
2021/09/16 00:32:37;;;;;;;3.00;2.10;;;;;;;;;;5052031;28;20128;-63
2021/09/16 00:35:07;;;;;;;2.22;1.80;;;;;;;;;;5051942;28;20111;-64
2021/09/16 00:37:34;;;;;;;2.47;1.25;;;;;;;;;;5052176;28;20301;-64
2021/09/16 00:40:03;;;;;;;5.60;1.52;;;;;;;;;;5034527;28;20045;-64
2021/09/16 00:42:30;;;;;;;1.40;1.30;;;;;;;;;;5051944;28;20102;-64
2021/09/16 00:44:56;;;;;;;1.85;1.45;;;;;;;;;;5051905;28;20095;-64
2021/09/16 00:47:23;;;;;;;3.65;1.40;;;;;;;;;;5052058;28;20045;-64
2021/09/16 00:49:49;;;;;;;2.90;1.33;;;;;;;;;;5052029;28;20044;-64
2021/09/16 00:52:16;;;;;;;4.13;1.25;;;;;;;;;;5051837;28;20056;-64
2021/09/16 00:54:45;;;;;;;2.88;1.63;;;;;;;;;;5052024;28;20057;-64
2021/09/16 00:57:13;;;;;;;3.00;1.30;;;;;;;;;;5051805;28;20049;-64
2021/09/16 00:59:39;;;;;;;1.30;1.20;;;;;;;;;;5034305;28;20045;-64
2021/09/16 01:02:06;;;;;;;1.50;1.40;;;;;;;;;;5051567;28;20049;-64
2021/09/16 01:04:33;;;;;;;1.17;1.05;;;;;;;;;;5051741;28;20045;-63
2021/09/16 01:06:59;;;;;;;1.60;1.13;;;;;;;;;;5051697;28;20102;-64
2021/09/16 01:09:29;;;;;;;1.98;1.20;;;;;;;;;;5051912;28;20404;-64
2021/09/16 01:11:56;;;;;;;1.50;1.23;;;;;;;;;;5017519;28;20053;-64
2021/09/16 01:14:24;;;;;;;3.83;1.00;;;;;;;;;;5051663;28;20049;-64
2021/09/16 01:16:51;;;;;;;2.70;1.33;;;;;;;;;;5051631;28;20044;-64
2021/09/16 01:19:18;;;;;;;1.55;1.00;;;;;;;;;;5051661;28;20496;-64
2021/09/16 01:21:45;;;;;;;1.42;1.23;;;;;;;;;;5051347;28;20462;-63
2021/09/16 01:24:12;;;;;;;1.92;1.10;;;;;;;;;;5051333;28;20065;-64
2021/09/16 01:26:40;;;;;;;1.17;0.93;;;;;;;;;;5051545;28;20048;-64
2021/09/16 01:29:07;;;;;;;1.58;1.45;;;;;;;;;;5033866;28;20114;-64
2021/09/16 01:31:39;;;;;;;2.05;1.30;;;;;;;;;;5051522;28;20049;-64
2021/09/16 01:34:07;;;;;;;2.72;1.23;;;;;;;;;;5051038;28;20049;-63
2021/09/16 01:36:35;;;;;;;1.55;1.20;;;;;;;;;;5072371;23;20454;-65
2021/09/16 01:39:05;;;;;;;3.65;1.38;;;;;;;;;;5033796;28;20496;-65
2021/09/16 01:41:32;;;;;;;3.33;1.17;;;;;;;;;;5053951;28;20045;-66
2021/09/16 01:43:59;;;;;;;3.88;1.50;;;;;;;;;;5037492;28;20048;-65
2021/09/16 01:46:25;;;;;;;1.48;1.10;;;;;;;;;;5055443;28;20056;-65
2021/09/16 01:48:52;;;;;;;1.50;1.40;;;;;;;;;;5055443;28;20065;-65
2021/09/16 01:51:19;;;;;;;5.55;1.50;;;;;;;;;;5055404;28;20052;-66
2021/09/16 01:53:45;;;;;;;2.28;1.35;;;;;;;;;;5055172;28;20053;-66
2021/09/16 01:56:12;;;;;;;2.40;1.40;;;;;;;;;;5055328;28;20057;-65
2021/09/16 01:58:38;;;;;;;2.38;1.70;;;;;;;;;;5055314;28;20045;-65
2021/09/16 02:01:05;;;;;;;2.17;1.52;;;;;;;;;;5055076;28;20470;-67
2021/09/16 02:03:32;;;;;;;2.00;1.38;;;;;;;;;;5055225;28;20139;-65
2021/09/16 02:05:58;;;;;;;1.77;1.60;;;;;;;;;;5054727;28;20462;-65
2021/09/16 02:08:25;;;;;;;3.38;1.60;;;;;;;;;;5055034;28;20053;-66
2021/09/16 02:10:52;;;;;;;4.45;1.70;;;;;;;;;;5037244;28;20467;-67
2021/09/16 02:13:19;;;;;;;3.58;1.52;;;;;;;;;;5054503;28;20529;-66
2021/09/16 02:15:45;;;;;;;4.03;1.45;;;;;;;;;;5054851;28;20107;-65
2021/09/16 02:18:12;;;;;;;1.90;1.60;;;;;;;;;;5054694;28;20044;-65
2021/09/16 02:20:39;;;;;;;1.95;1.50;;;;;;;;;;5054740;28;20565;-66
2021/09/16 02:23:05;;;;;;;3.40;1.45;;;;;;;;;;5054422;28;20102;-66
2021/09/16 02:25:32;;;;;;;2.45;1.85;;;;;;;;;;5036968;28;20474;-66
2021/09/16 02:27:58;;;;;;;2.80;2.00;;;;;;;;;;5054505;28;20094;-66
2021/09/16 02:30:25;;;;;;;3.28;1.42;;;;;;;;;;5054684;28;20103;-66
2021/09/16 02:32:52;;;;;;;5.45;1.90;;;;;;;;;;5054867;28;20053;-65
2021/09/16 02:35:18;;;;;;;3.90;2.65;;;;;;;;;;5054238;28;20449;-65
2021/09/16 02:37:45;;;;;;;2.88;1.85;;;;;;;;;;5036792;28;20095;-65
2021/09/16 02:40:12;;;;;;;2.78;2.17;;;;;;;;;;5036640;28;20060;-65
2021/09/16 02:42:41;;;;;;;2.08;1.77;;;;;;;;;;5054344;28;20053;-66
2021/09/16 02:45:10;;;;;;;5.47;1.63;;;;;;;;;;5020365;28;20400;-66
2021/09/16 02:47:38;;;;;;;3.42;1.60;;;;;;;;;;5020607;28;20182;-65
2021/09/16 02:50:05;;;;;;;3.67;1.70;;;;;;;;;;5054072;28;20053;-65
2021/09/16 02:52:32;;;;;;;3.25;1.73;;;;;;;;;;5035431;28;20099;-66
2021/09/16 02:54:58;;;;;;;2.88;1.85;;;;;;;;;;5054025;28;20050;-65
2021/09/16 02:57:25;;;;;;;3.40;1.75;;;;;;;;;;5054247;28;20045;-66
2021/09/16 02:59:51;;;;;;;3.25;2.25;;;;;;;;;;5036790;28;20458;-65
2021/09/16 03:02:18;;;;;;;3.15;1.88;;;;;;;;;;5054197;28;20107;-66
2021/09/16 03:04:45;;;;;;;2.47;1.90;;;;;;;;;;5053820;28;20045;-66
2021/09/16 03:07:11;;;;;;;2.78;1.90;;;;;;;;;;5036129;28;20049;-66
2021/09/16 03:09:38;;;;;;;1.80;1.70;;;;;;;;;;5053935;28;20052;-65
2021/09/16 03:12:05;;;;;;;9.30;3.17;;;;;;;;;;5035830;28;20535;-65
2021/09/16 03:14:31;;;;;;;4.15;2.15;;;;;;;;;;5019701;28;20099;-66
2021/09/16 03:16:58;;;;;;;3.15;1.88;;;;;;;;;;5053651;28;20103;-65
2021/09/16 03:19:24;;;;;;;2.90;2.00;;;;;;;;;;5053664;28;20525;-66
2021/09/16 03:21:51;;;;;;;2.72;2.10;;;;;;;;;;5035827;28;20053;-66
2021/09/16 03:24:18;;;;;;;5.43;2.20;;;;;;;;;;5053590;28;20452;-66
2021/09/16 03:26:44;;;;;;;5.68;2.50;;;;;;;;;;5035718;28;20548;-66
2021/09/16 03:29:11;;;;;;;5.28;2.22;;;;;;;;;;5035828;28;20049;-66
2021/09/16 03:31:37;;;;;;;4.55;2.60;;;;;;;;;;5053487;28;20574;-66
2021/09/16 03:34:04;;;;;;;3.90;2.30;;;;;;;;;;5053409;28;20050;-65
2021/09/16 03:36:31;;;;;;;3.78;2.40;;;;;;;;;;5053233;28;20049;-66
2021/09/16 03:38:58;;;;;;;4.50;2.10;;;;;;;;;;5019250;28;20045;-66
2021/09/16 03:41:25;;;;;;;4.47;2.00;;;;;;;;;;5035632;28;20049;-65
2021/09/16 03:43:52;;;;;;;2.80;1.75;;;;;;;;;;5035294;28;20114;-65
2021/09/16 03:46:18;;;;;;;2.75;2.10;;;;;;;;;;5053163;28;20052;-65
2021/09/16 03:48:45;;;;;;;2.47;2.10;;;;;;;;;;5018961;28;20049;-66
2021/09/16 03:51:12;;;;;;;2.05;1.80;;;;;;;;;;5035599;28;20049;-66
2021/09/16 03:53:38;;;;;;;3.83;2.05;;;;;;;;;;5035211;28;20523;-66
2021/09/16 03:56:05;;;;;;;2.70;2.17;;;;;;;;;;5052895;28;20103;-65
2021/09/16 03:58:31;;;;;;;3.35;1.90;;;;;;;;;;5053123;28;20396;-66
2021/09/16 04:00:58;;;;;;;2.72;2.00;;;;;;;;;;5052820;28;20049;-66
2021/09/16 04:03:25;;;;;;;4.63;2.03;;;;;;;;;;5052558;28;20123;-66
2021/09/16 04:05:51;;;;;;;3.88;2.15;;;;;;;;;;5052818;28;20049;-66
2021/09/16 04:08:18;;;;;;;4.55;2.40;;;;;;;;;;5035004;28;20041;-66
2021/09/16 04:10:45;;;;;;;3.13;2.30;;;;;;;;;;5052932;28;20470;-66
2021/09/16 04:13:14;;;;;;;3.00;2.20;;;;;;;;;;5052658;28;20106;-66
2021/09/16 04:15:41;;;;;;;3.88;2.20;;;;;;;;;;5052515;28;20098;-66
2021/09/16 04:18:07;;;;;;;7.10;3.35;;;;;;;;;;5052479;28;20110;-66
2021/09/16 04:20:34;;;;;;;3.47;2.17;;;;;;;;;;5034834;28;20107;-66
2021/09/16 04:23:00;;;;;;;3.28;2.00;;;;;;;;;;5052282;28;20075;-67
2021/09/16 04:25:27;;;;;;;2.05;1.88;;;;;;;;;;5034918;28;20053;-66
2021/09/16 04:27:54;;;;;;;2.65;2.10;;;;;;;;;;5034669;28;20053;-66
2021/09/16 04:30:20;;;;;;;3.17;1.85;;;;;;;;;;5052430;28;20044;-66
2021/09/16 04:32:47;;;;;;;3.40;2.08;;;;;;;;;;5052160;28;20045;-66
2021/09/16 04:35:14;;;;;;;2.08;1.70;;;;;;;;;;5034410;28;20048;-66
2021/09/16 04:37:40;;;;;;;4.03;1.98;;;;;;;;;;5018275;28;20549;-66
2021/09/16 04:40:07;;;;;;;5.07;1.90;;;;;;;;;;5034456;28;20187;-66
2021/09/16 04:42:34;;;;;;;5.95;2.90;;;;;;;;;;5052315;28;20052;-66
2021/09/16 04:45:01;;;;;;;5.32;2.08;;;;;;;;;;5051995;28;20057;-66
2021/09/16 04:47:27;;;;;;;4.50;2.22;;;;;;;;;;5051868;28;20554;-66
2021/09/16 04:49:54;;;;;;;2.20;2.00;;;;;;;;;;5051979;28;20095;-65
2021/09/16 04:52:20;;;;;;;2.58;2.35;;;;;;;;;;5034353;28;20045;-66
2021/09/16 04:54:48;;;;;;;2.72;2.20;;;;;;;;;;5051898;28;20553;-66
2021/09/16 04:57:14;;;;;;;5.57;2.08;;;;;;;;;;5051899;28;20049;-65
2021/09/16 04:59:41;;;;;;;3.72;2.20;;;;;;;;;;5051879;28;20055;-66
2021/09/16 05:02:08;;;;;;;2.47;2.00;;;;;;;;;;5051491;28;20053;-66
2021/09/16 05:04:34;;;;;;;7.10;2.80;;;;;;;;;;5034012;28;20098;-66
2021/09/16 05:07:01;;;;;;;2.75;1.70;;;;;;;;;;5033959;28;20057;-66
2021/09/16 05:09:27;;;;;;;6.80;1.90;;;;;;;;;;5051805;28;20053;-66
2021/09/16 05:11:54;;;;;;;3.05;1.88;;;;;;;;;;5051532;28;20049;-66
2021/09/16 05:14:21;;;;;;;4.25;1.80;;;;;;;;;;5051777;28;20053;-66
2021/09/16 05:16:47;;;;;;;4.65;2.28;;;;;;;;;;5051313;28;20053;-65
2021/09/16 05:19:14;;;;;;;2.60;2.20;;;;;;;;;;5051781;28;20396;-66
2021/09/16 05:21:40;;;;;;;3.83;1.83;;;;;;;;;;5051878;28;20045;-65
2021/09/16 05:24:07;;;;;;;2.53;1.70;;;;;;;;;;5051329;28;20053;-66
2021/09/16 05:26:34;;;;;;;3.03;1.83;;;;;;;;;;5034063;28;20059;-67
2021/09/16 05:29:00;;;;;;;3.17;1.92;;;;;;;;;;5051613;28;20053;-66
2021/09/16 05:31:27;;;;;;;2.80;2.08;;;;;;;;;;5051327;28;20495;-65
2021/09/16 05:33:53;;;;;;;2.47;2.28;;;;;;;;;;5051290;28;20108;-66
2021/09/16 05:36:20;;;;;;;2.80;1.63;;;;;;;;;;5051592;28;20083;-66
2021/09/16 05:38:47;;;;;;;3.38;2.53;;;;;;;;;;5033877;28;20091;-64
2021/09/16 05:41:13;;;;;;;3.20;2.03;;;;;;;;;;5051427;28;20107;-63
2021/09/16 05:43:40;;;;;;;3.55;2.47;;;;;;;;;;5051665;28;20099;-64
2021/09/16 05:46:07;;;;;;;6.60;2.67;;;;;;;;;;5051313;28;20056;-65
2021/09/16 05:48:34;;;;;;;2.75;1.90;;;;;;;;;;5033698;28;20049;-64
2021/09/16 05:51:01;;;;;;;2.70;2.20;;;;;;;;;;5051220;28;20104;-64
2021/09/16 05:53:27;;;;;;;5.22;2.65;;;;;;;;;;5033529;28;20049;-63
2021/09/16 05:55:54;;;;;;;3.20;2.45;;;;;;;;;;5033508;28;20465;-65
2021/09/16 05:58:20;;;;;;;3.17;2.58;;;;;;;;;;5051372;28;20102;-64
2021/09/16 06:00:47;;;;;;;11.85;2.80;;;;;;;;;;5033735;28;20111;-64
2021/09/16 06:03:14;;;;;;;3.33;2.13;;;;;;;;;;5050979;28;20057;-64
2021/09/16 06:05:41;;;;;;;3.92;2.25;;;;;;;;;;5051053;28;20495;-64
2021/09/16 06:08:07;;;;;;;6.18;3.03;;;;;;;;;;5051011;28;20458;-64
2021/09/16 06:10:34;;;;;;;4.03;2.60;;;;;;;;;;5051212;28;20053;-64
2021/09/16 06:13:01;;;;;;;4.57;2.63;;;;;;;;;;5033164;28;20102;-64
2021/09/16 06:15:27;;;;;;;6.78;2.90;;;;;;;;;;5033299;28;20095;-65
2021/09/16 06:17:54;;;;;;;5.10;2.67;;;;;;;;;;5051127;28;20488;-64
2021/09/16 06:20:20;;;;;;;6.05;2.85;;;;;;;;;;5051062;28;20057;-64
2021/09/16 06:22:47;;;;;;;6.20;3.13;;;;;;;;;;5033232;28;20461;-64
2021/09/16 06:25:14;;;;;;;4.35;2.90;;;;;;;;;;5033236;28;20049;-64
2021/09/16 06:27:42;;;;;;;6.85;3.30;;;;;;;;;;5051959;28;20056;-64
2021/09/16 06:30:10;;;;;;;7.03;3.38;;;;;;;;;;5054460;28;20053;-64
2021/09/16 06:32:37;;;;;;;4.78;2.88;;;;;;;;;;5054547;28;20057;-64
2021/09/16 06:35:05;;;;;;;3.88;3.10;;;;;;;;;;5054236;28;20060;-64
2021/09/16 06:37:31;;;;;;;7.93;3.13;;;;;;;;;;5020752;28;20419;-64
2021/09/16 06:39:59;;;;;;;6.45;3.45;;;;;;;;;;5020502;28;20053;-64
2021/09/16 06:42:25;;;;;;;4.95;3.38;;;;;;;;;;5020146;28;20049;-64
2021/09/16 06:44:52;;;;;;;5.03;3.50;;;;;;;;;;5036789;28;20098;-64
2021/09/16 06:47:19;;;;;;;3.42;2.70;;;;;;;;;;5054255;28;20053;-64
2021/09/16 06:49:46;;;;;;;4.55;3.53;;;;;;;;;;5054335;28;20049;-64
2021/09/16 06:52:13;;;;;;;6.35;3.45;;;;;;;;;;5054104;28;20435;-63
2021/09/16 06:54:40;;;;;;;5.35;3.45;;;;;;;;;;5036597;28;20495;-64
2021/09/16 06:57:07;;;;;;;5.20;3.08;;;;;;;;;;5036383;28;20103;-63
2021/09/16 06:59:34;;;;;;;5.63;2.92;;;;;;;;;;5036444;28;20049;-64
2021/09/16 07:02:00;;;;;;;4.25;3.30;;;;;;;;;;5053993;28;20095;-64
2021/09/16 07:04:27;;;;;;;3.95;2.70;;;;;;;;;;5036338;28;20098;-64
2021/09/16 07:06:54;;;;;;;5.28;3.03;;;;;;;;;;5053949;28;20049;-64
2021/09/16 07:09:21;;;;;;;4.78;3.20;;;;;;;;;;5053978;28;20412;-64
2021/09/16 07:11:47;;;;;;;4.20;2.88;;;;;;;;;;5053688;28;20057;-63
2021/09/16 07:14:14;;;;;;;6.68;3.20;;;;;;;;;;5053665;28;20052;-65
2021/09/16 07:16:40;;;;;;;6.43;3.17;;;;;;;;;;5053756;28;20126;-64
2021/09/16 07:19:07;;;;;;;6.15;3.58;;;;;;;;;;5053542;28;20053;-64
2021/09/16 07:21:34;;;;;;;3.28;2.97;;;;;;;;;;5053843;28;20099;-64
2021/09/16 07:24:01;;;;;;;4.70;3.20;;;;;;;;;;5035714;28;20045;-64
2021/09/16 07:26:27;;;;;;;4.78;2.92;;;;;;;;;;5019379;28;20135;-64
2021/09/16 07:28:58;;;;;;;5.45;3.50;;;;;;;;;;5036294;28;20048;-64
2021/09/16 07:31:24;;;;;;;6.03;3.60;;;;;;;;;;5035993;28;20053;-64
2021/09/16 07:33:51;;;;;;;4.43;3.17;;;;;;;;;;5053272;28;20428;-64
2021/09/16 07:36:18;;;;;;;6.32;3.75;;;;;;;;;;5055959;23;20499;-61
2021/09/16 07:38:44;;;;;;;6.82;3.75;;;;;;;;;;5053029;28;20075;-62
2021/09/16 07:41:11;;;;;;;6.43;4.13;;;;;;;;;;5053135;28;20049;-62
2021/09/16 07:43:38;;;;;;;6.88;3.92;;;;;;;;;;5053126;28;20052;-61
2021/09/16 07:46:04;;;;;;;8.38;4.82;;;;;;;;;;5053023;28;20061;-61
2021/09/16 07:48:31;;;;;;;6.32;4.40;;;;;;;;;;5053045;28;20045;-61
2021/09/16 07:50:58;;;;;;;5.57;3.92;;;;;;;;;;5053070;28;20045;-62
2021/09/16 07:53:27;;;;;;;6.18;4.78;;;;;;;;;;5052990;28;20048;-62
2021/09/16 07:55:54;;;;;;;5.97;4.32;;;;;;;;;;5052831;28;20496;-62
2021/09/16 07:58:20;;;;;;;10.23;5.80;;;;;;;;;;5053077;28;20044;-62
2021/09/16 08:00:47;;;;;;;14.02;8.88;;;;;;;;;;5052900;28;20079;-62
2021/09/16 08:03:14;;;;;;;14.00;8.98;;;;;;;;;;5052921;28;20057;-62
2021/09/16 08:05:41;;;;;;;17.40;10.20;;;;;;;;;;5052895;28;20088;-62
2021/09/16 08:08:07;;;;;;;16.90;11.90;;;;;;;;;;5053559;28;20106;-62
2021/09/16 08:10:35;;;;;;;17.30;12.18;;;;;;;;;;5052670;28;20045;-61
2021/09/16 08:13:02;;;;;;;18.73;13.00;;;;;;;;;;5052292;28;20094;-61
2021/09/16 08:15:28;;;;;;;20.92;14.77;;;;;;;;;;5053648;28;20060;-61
2021/09/16 08:17:55;;;;;;;22.88;15.82;;;;;;;;;;5052547;28;20052;-61
2021/09/16 08:20:22;;;;;;;23.15;14.43;;;;;;;;;;5052693;28;20049;-61
2021/09/16 08:22:50;;;;;;;22.83;13.63;;;;;;;;;;5052252;28;20053;-61
2021/09/16 08:25:17;;;;;;;18.70;13.80;;;;;;;;;;5052319;28;20119;-62
2021/09/16 08:27:43;;;;;;;20.45;13.43;;;;;;;;;;5034645;28;20052;-61
2021/09/16 08:30:11;;;;;;;16.85;11.27;;;;;;;;;;5052196;28;20056;-62
2021/09/16 08:32:38;;;;;;;17.55;11.27;;;;;;;;;;5034544;28;20415;-62
2021/09/16 08:35:05;;;;;;;18.63;10.55;;;;;;;;;;5052071;28;20057;-64
2021/09/16 08:37:33;;;;;;;12.80;8.98;;;;;;;;;;5052231;28;20049;-64
2021/09/16 08:40:00;;;;;;;10.95;7.68;;;;;;;;;;5052085;28;20128;-64
2021/09/16 08:42:27;;;;;;;10.77;7.45;;;;;;;;;;5051974;28;20049;-64
2021/09/16 08:44:54;;;;;;;13.25;7.47;;;;;;;;;;5052024;28;20045;-64
2021/09/16 08:47:24;;;;;;;8.82;6.40;;;;;;;;;;5052092;28;20232;-64
2021/09/16 08:49:52;;;;;;;13.07;6.88;;;;;;;;;;5051686;28;20411;-64
2021/09/16 08:52:19;;;;;;;7.70;5.95;;;;;;;;;;5051502;28;20048;-64
2021/09/16 08:54:45;;;;;;;6.88;6.18;;;;;;;;;;5017978;28;20474;-63
2021/09/16 08:57:13;;;;;;;7.18;6.30;;;;;;;;;;5034145;28;20503;-64
2021/09/16 08:59:42;;;;;;;7.68;6.88;;;;;;;;;;5051907;28;20049;-63
2021/09/16 09:02:08;;;;;;;7.57;6.38;;;;;;;;;;5033906;28;20466;-64
2021/09/16 09:04:35;;;;;;;11.35;8.13;;;;;;;;;;5051798;28;20128;-63
2021/09/16 09:07:06;;;;;;;11.68;8.80;;;;;;;;;;5051904;28;20049;-63
2021/09/16 09:09:33;;;;;;;9.60;8.20;;;;;;;;;;5051814;28;20049;-63
2021/09/16 09:12:13;;;;;;;9.88;8.23;;;;;;;;;;5051475;28;20473;-64
2021/09/16 09:14:42;;;;;;;8.23;7.30;;;;;;;;;;5051719;28;20102;-64
2021/09/16 09:17:19;;;;;;;11.02;8.32;;;;;;;;;;5051583;28;20056;-64
2021/09/16 09:19:47;;;;;;;10.93;8.80;;;;;;;;;;5051639;28;20072;-63
2021/09/16 09:22:14;;;;;;;11.02;9.70;;;;;;;;;;5051363;28;20110;-65
2021/09/16 09:24:43;;;;;;;13.65;11.18;;;;;;;;;;5051642;28;20053;-64
2021/09/16 09:27:24;;;;;;;15.45;11.38;;;;;;;;;;5051534;28;20095;-64
2021/09/16 09:30:08;;;;;;;15.07;10.88;;;;;;;;;;5051454;28;20491;-64
2021/09/16 09:32:52;;;;;;;19.13;13.43;;;;;;;;;;5051694;28;20049;-64
2021/09/16 09:35:43;;;;;;;15.27;12.18;;;;;;;;;;5051279;28;20419;-64
2021/09/16 09:38:18;;;;;;;14.65;12.80;;;;;;;;;;5051236;28;20048;-64
2021/09/16 09:40:48;;;;;;;18.83;13.38;;;;;;;;;;5051296;28;20048;-63
2021/09/16 09:43:22;;;;;;;16.85;12.85;;;;;;;;;;5051043;28;20053;-64
2021/09/16 09:46:02;;;;;;;18.85;13.45;;;;;;;;;;5051163;28;20094;-64
2021/09/16 09:48:29;;;;;;;23.42;15.70;;;;;;;;;;5051281;28;20059;-63
2021/09/16 09:50:56;;;;;;;23.23;15.15;;;;;;;;;;5051256;28;20126;-65
2021/09/16 09:53:23;;;;;;;21.30;14.65;;;;;;;;;;5050966;28;20495;-65
2021/09/16 09:55:50;;;;;;;18.13;13.25;;;;;;;;;;5033364;28;20049;-64
2021/09/16 09:58:32;;;;;;;18.88;13.55;;;;;;;;;;5051116;28;20102;-65
2021/09/16 10:01:32;;;;;;;20.00;14.93;;;;;;;;;;5033961;28;20107;-65
2021/09/16 10:04:00;;;;;;;18.75;13.18;;;;;;;;;;5047123;28;20060;-64
2021/09/16 10:06:35;;;;;;;17.48;12.88;;;;;;;;;;5037354;28;20045;-63
2021/09/16 10:09:09;;;;;;;15.55;12.45;;;;;;;;;;5054685;28;20087;-65
2021/09/16 10:11:47;;;;;;;20.67;13.38;;;;;;;;;;5037239;28;20057;-64
2021/09/16 10:14:14;;;;;;;16.45;12.40;;;;;;;;;;5054937;28;20115;-64
2021/09/16 10:16:41;;;;;;;15.93;11.82;;;;;;;;;;5054695;28;20049;-64
2021/09/16 10:19:08;;;;;;;21.23;13.55;;;;;;;;;;5054534;28;20049;-65
2021/09/16 10:21:35;;;;;;;16.70;12.50;;;;;;;;;;5054671;28;20052;-64
2021/09/16 10:24:03;;;;;;;15.60;12.10;;;;;;;;;;5054206;28;20049;-64
2021/09/16 10:26:40;;;;;;;14.45;11.27;;;;;;;;;;5054591;28;20118;-64
2021/09/16 10:29:28;;;;;;;16.02;12.45;;;;;;;;;;5054372;28;20098;-64
2021/09/16 10:32:07;;;;;;;16.35;12.40;;;;;;;;;;5054347;28;20119;-64
2021/09/16 10:34:44;;;;;;;20.17;14.55;;;;;;;;;;5054444;28;20053;-64
2021/09/16 10:37:12;;;;;;;21.23;14.50;;;;;;;;;;5054190;28;20052;-64
2021/09/16 10:39:41;;;;;;;23.17;14.90;;;;;;;;;;5054353;28;20052;-64
2021/09/16 10:42:08;;;;;;;22.90;15.77;;;;;;;;;;5053949;28;20488;-64
2021/09/16 10:44:36;;;;;;;23.00;15.18;;;;;;;;;;5054343;28;20053;-64
2021/09/16 10:47:35;;;;;;;24.45;16.70;;;;;;;;;;5036536;28;20550;-64
2021/09/16 10:50:19;;;;;;;18.60;14.15;;;;;;;;;;5000212;28;20053;-63
2021/09/16 10:52:45;;;;;;;21.30;16.13;;;;;;;;;;5053868;28;20049;-64
2021/09/16 10:55:12;;;;;;;24.45;16.15;;;;;;;;;;5054169;28;20106;-64
2021/09/16 10:57:38;;;;;;;22.33;15.30;;;;;;;;;;5053981;28;20053;-64
2021/09/16 11:00:11;;;;;;;23.88;16.88;;;;;;;;;;5053874;28;20045;-63
2021/09/16 11:02:42;;;;;;;26.42;17.10;;;;;;;;;;5053914;28;20103;-63
2021/09/16 11:05:17;;;;;;;25.30;15.15;;;;;;;;;;5053775;28;20495;-64
2021/09/16 11:07:50;;;;;;;25.60;15.38;;;;;;;;;;5053810;28;20068;-64
2021/09/16 11:10:17;;;;;;;23.25;15.07;;;;;;;;;;5053814;28;20048;-64
2021/09/16 11:12:51;;;;;;;22.00;15.43;;;;;;;;;;5053303;28;20048;-63
2021/09/16 11:15:25;;;;;;;24.20;15.18;;;;;;;;;;5053220;28;20106;-64
2021/09/16 11:18:10;;;;;;;23.00;14.55;;;;;;;;;;5036792;28;20423;-63
2021/09/16 11:20:37;;;;;;;25.23;15.45;;;;;;;;;;5038395;28;20045;-64
2021/09/16 11:23:04;;;;;;;24.52;14.82;;;;;;;;;;5053221;28;20104;-64
2021/09/16 11:25:45;;;;;;;25.08;16.13;;;;;;;;;;5053932;28;20099;-64
2021/09/16 11:28:12;;;;;;;22.70;15.30;;;;;;;;;;5053357;28;20049;-64
2021/09/16 11:30:40;;;;;;;24.17;15.50;;;;;;;;;;5053350;28;20068;-64
2021/09/16 11:33:14;;;;;;;25.48;15.18;;;;;;;;;;5053186;28;20500;-64
2021/09/16 11:35:40;;;;;;;25.90;15.88;;;;;;;;;;5053246;28;20049;-64
2021/09/16 11:38:07;;;;;;;24.63;15.18;;;;;;;;;;5053114;28;20122;-64
2021/09/16 11:40:39;;;;;;;22.75;15.55;;;;;;;;;;5053301;28;20049;-64
2021/09/16 11:43:07;;;;;;;23.23;15.52;;;;;;;;;;5052868;28;20110;-64
2021/09/16 11:45:52;;;;;;;25.40;15.80;;;;;;;;;;5053321;28;20045;-64
2021/09/16 11:48:21;;;;;;;22.55;15.02;;;;;;;;;;5053026;28;20053;-64
2021/09/16 11:50:50;;;;;;;26.67;15.25;;;;;;;;;;5052946;28;20040;-64
2021/09/16 11:53:19;;;;;;;23.70;15.05;;;;;;;;;;5052474;28;20079;-64
2021/09/16 11:55:47;;;;;;;21.70;14.80;;;;;;;;;;5052807;28;20110;-64
2021/09/16 11:58:17;;;;;;;24.63;14.65;;;;;;;;;;5053238;28;20053;-64
2021/09/16 12:00:47;;;;;;;20.00;14.32;;;;;;;;;;5053160;28;20103;-65
2021/09/16 12:03:21;;;;;;;17.27;13.50;;;;;;;;;;5052602;28;20140;-65
2021/09/16 12:05:55;;;;;;;15.88;12.55;;;;;;;;;;5052765;28;20053;-64
2021/09/16 12:08:27;;;;;;;17.33;12.52;;;;;;;;;;5052992;28;20053;-64
2021/09/16 12:11:08;;;;;;;17.88;12.52;;;;;;;;;;5052590;28;20462;-65
2021/09/16 12:13:40;;;;;;;16.50;12.80;;;;;;;;;;5052923;28;20049;-64
2021/09/16 12:16:15;;;;;;;16.40;11.75;;;;;;;;;;5052788;28;20056;-64
2021/09/16 12:18:53;;;;;;;17.10;12.43;;;;;;;;;;5052872;28;20131;-64
2021/09/16 12:21:28;;;;;;;18.58;12.88;;;;;;;;;;5034901;28;20076;-64
2021/09/16 12:23:58;;;;;;;16.63;12.95;;;;;;;;;;5052298;28;20136;-64
2021/09/16 12:26:28;;;;;;;20.23;14.00;;;;;;;;;;5051441;28;20467;-64
2021/09/16 12:29:02;;;;;;;21.50;13.98;;;;;;;;;;5052610;28;20396;-64
2021/09/16 12:31:34;;;;;;;21.30;13.18;;;;;;;;;;5052467;28;20470;-64
2021/09/16 12:34:11;;;;;;;19.17;14.13;;;;;;;;;;5035601;28;20045;-64
2021/09/16 12:36:52;;;;;;;21.50;14.60;;;;;;;;;;5052273;28;20470;-65
2021/09/16 12:39:19;;;;;;;21.25;13.98;;;;;;;;;;5052351;28;20041;-63
2021/09/16 12:41:49;;;;;;;16.67;13.38;;;;;;;;;;5052086;28;20492;-64
2021/09/16 12:44:20;;;;;;;19.80;13.73;;;;;;;;;;5052018;28;20107;-65
2021/09/16 12:46:56;;;;;;;20.58;13.38;;;;;;;;;;5052043;28;20079;-65
2021/09/16 12:49:26;;;;;;;18.23;12.73;;;;;;;;;;5052179;28;20052;-65
2021/09/16 12:51:54;;;;;;;18.35;13.45;;;;;;;;;;5051812;28;20119;-64
2021/09/16 12:54:22;;;;;;;19.38;13.77;;;;;;;;;;5051988;28;20107;-64
2021/09/16 12:56:49;;;;;;;19.67;14.75;;;;;;;;;;5051954;28;20083;-65
2021/09/16 12:59:17;;;;;;;20.25;14.02;;;;;;;;;;5051891;28;20098;-65
2021/09/16 13:01:46;;;;;;;18.95;13.80;;;;;;;;;;5051615;28;20044;-65
2021/09/16 13:04:14;;;;;;;16.73;13.70;;;;;;;;;;5051594;28;20053;-65
2021/09/16 13:06:40;;;;;;;18.95;14.10;;;;;;;;;;5051763;28;20095;-65
2021/09/16 13:09:07;;;;;;;18.80;13.63;;;;;;;;;;5051603;28;20079;-65
2021/09/16 13:11:34;;;;;;;17.98;14.75;;;;;;;;;;5051812;28;20049;-65
2021/09/16 13:14:11;;;;;;;20.77;15.48;;;;;;;;;;5051458;28;20083;-65
2021/09/16 13:16:39;;;;;;;22.60;15.00;;;;;;;;;;5051693;28;20400;-65
2021/09/16 13:19:07;;;;;;;19.02;14.82;;;;;;;;;;5051525;28;20048;-65
2021/09/16 13:21:47;;;;;;;19.85;14.75;;;;;;;;;;5051568;28;20052;-65
2021/09/16 13:24:14;;;;;;;20.48;14.55;;;;;;;;;;5051477;28;20103;-65
2021/09/16 13:26:41;;;;;;;20.17;14.50;;;;;;;;;;5051613;28;20057;-63
2021/09/16 13:29:07;;;;;;;16.77;14.48;;;;;;;;;;5051375;28;20106;-62
2021/09/16 13:31:34;;;;;;;20.58;15.27;;;;;;;;;;5051649;28;20045;-65
2021/09/16 13:34:00;;;;;;;19.45;15.10;;;;;;;;;;5051509;28;20049;-66
2021/09/16 13:36:27;;;;;;;15.63;13.38;;;;;;;;;;5052853;28;20118;-65
2021/09/16 13:38:54;;;;;;;16.63;14.65;;;;;;;;;;5055484;28;20495;-65
2021/09/16 13:41:21;;;;;;;17.08;15.25;;;;;;;;;;5055508;28;20118;-65
2021/09/16 13:43:47;;;;;;;16.88;13.95;;;;;;;;;;5055304;28;20045;-65
2021/09/16 13:46:14;;;;;;;19.38;14.90;;;;;;;;;;5055449;28;20499;-65
2021/09/16 13:48:41;;;;;;;19.23;14.70;;;;;;;;;;5055424;28;20095;-63
2021/09/16 13:51:07;;;;;;;17.63;14.38;;;;;;;;;;5055236;28;20049;-63
2021/09/16 13:53:34;;;;;;;16.73;14.13;;;;;;;;;;5055200;28;20053;-64
2021/09/16 13:56:00;;;;;;;18.40;14.73;;;;;;;;;;5055065;28;20094;-65
2021/09/16 13:58:27;;;;;;;16.75;12.82;;;;;;;;;;5055364;28;20053;-65
2021/09/16 14:00:54;;;;;;;17.60;14.68;;;;;;;;;;5055224;28;20095;-65
2021/09/16 14:03:20;;;;;;;16.50;13.63;;;;;;;;;;5054784;28;20569;-65
2021/09/16 14:05:47;;;;;;;15.65;13.63;;;;;;;;;;5054985;28;20049;-65
2021/09/16 14:08:14;;;;;;;17.55;13.88;;;;;;;;;;5054900;28;20057;-64
2021/09/16 14:10:41;;;;;;;16.10;13.95;;;;;;;;;;5054985;28;20051;-65
2021/09/16 14:13:08;;;;;;;18.48;14.13;;;;;;;;;;5054810;28;20456;-65
2021/09/16 14:15:34;;;;;;;18.75;14.32;;;;;;;;;;5054711;28;20048;-64
2021/09/16 14:18:01;;;;;;;15.55;13.77;;;;;;;;;;5055038;28;20106;-65
2021/09/16 14:20:27;;;;;;;18.35;14.18;;;;;;;;;;5054853;28;20045;-63
2021/09/16 14:22:54;;;;;;;16.00;13.45;;;;;;;;;;5054822;28;20247;-63
2021/09/16 14:25:21;;;;;;;21.85;14.98;;;;;;;;;;5054662;28;20052;-64
2021/09/16 14:27:47;;;;;;;18.20;14.90;;;;;;;;;;5054813;28;20462;-65
2021/09/16 14:30:14;;;;;;;15.13;13.63;;;;;;;;;;5054573;28;20041;-65
2021/09/16 14:32:41;;;;;;;15.25;13.60;;;;;;;;;;5054211;28;20052;-64
2021/09/16 14:35:08;;;;;;;18.02;14.98;;;;;;;;;;5054336;28;20565;-63
2021/09/16 14:37:35;;;;;;;16.55;13.57;;;;;;;;;;5054536;28;20471;-63
2021/09/16 14:40:02;;;;;;;14.77;12.07;;;;;;;;;;5054381;28;20048;-65